createdAt,value
2022-09-13T00:02:28.397Z,97792.84
2022-09-13T00:05:34.922Z,97806.38
2022-09-13T00:08:44.291Z,97798.41
2022-09-13T00:11:50.371Z,97798.91
2022-09-13T00:15:07.794Z,97786.50
2022-09-13T00:18:16.554Z,97779.47
2022-09-13T00:21:25.560Z,97785.38
2022-09-13T00:24:31.306Z,97779.97
2022-09-13T00:27:39.720Z,97775.50
2022-09-13T00:30:53.462Z,97773.13
2022-09-13T00:34:06.979Z,97780.44
2022-09-13T00:37:33.751Z,97780.75
2022-09-13T00:40:41.654Z,97775.97
2022-09-13T00:43:51.018Z,97775.00
2022-09-13T00:47:12.429Z,97769.94
2022-09-13T00:50:27.139Z,97781.06
2022-09-13T00:53:35.781Z,97765.00
2022-09-13T00:56:52.106Z,97755.28
2022-09-13T01:00:11.618Z,97757.50
2022-09-13T01:03:26.508Z,97750.53
2022-09-13T01:06:40.906Z,97751.78
2022-09-13T01:13:20.642Z,97737.47
2022-09-13T01:16:34.076Z,97746.38
2022-09-13T01:19:45.115Z,97738.59
2022-09-13T01:23:31.668Z,97747.16
2022-09-13T01:27:17.125Z,97756.53
2022-09-13T01:30:40.495Z,97747.94
2022-09-13T01:34:14.439Z,97757.66
2022-09-13T01:37:39.231Z,97740.31
2022-09-13T01:41:11.916Z,97745.25
2022-09-13T01:44:41.308Z,97741.25
2022-09-13T01:48:02.429Z,97737.78
2022-09-13T01:51:19.685Z,97743.03
2022-09-13T01:54:48.405Z,97750.66
2022-09-13T01:58:04.294Z,97752.88
2022-09-13T02:01:22.821Z,97745.88
2022-09-13T02:04:46.508Z,97752.41
2022-09-13T02:08:06.528Z,97752.53
2022-09-13T02:11:14.766Z,97747.56
2022-09-13T02:14:29.942Z,97754.72
2022-09-13T02:18:09.656Z,97752.31
2022-09-13T02:21:38.248Z,97759.16
2022-09-13T02:25:09.656Z,97756.09
2022-09-13T02:28:25.864Z,97767.22
2022-09-13T02:31:46.404Z,97752.13
2022-09-13T02:35:00.802Z,97749.56
2022-09-13T02:38:27.437Z,97751.97
2022-09-13T02:42:13.563Z,97758.31
2022-09-13T02:45:32.510Z,97752.25
2022-09-13T02:48:55.613Z,97760.97
2022-09-13T02:52:14.405Z,97752.69
2022-09-13T02:55:36.455Z,97757.59
2022-09-13T02:59:29.614Z,97746.97
2022-09-13T03:02:48.807Z,97755.97
2022-09-13T03:06:04.748Z,97754.53
2022-09-13T03:13:08.198Z,97737.50
2022-09-13T03:16:33.464Z,97738.59
2022-09-13T03:20:05.721Z,97730.00
2022-09-13T03:23:31.308Z,97723.03
2022-09-13T03:26:49.852Z,97727.63
2022-09-13T03:30:02.568Z,97718.25
2022-09-13T03:33:17.541Z,97728.38
2022-09-13T03:36:32.973Z,97738.19
2022-09-13T03:39:54.164Z,97750.72
2022-09-13T03:43:09.216Z,97756.41
2022-09-13T03:46:23.428Z,97748.94
2022-09-13T03:49:35.032Z,97739.41
2022-09-13T03:52:46.605Z,97739.88
2022-09-13T03:56:00.475Z,97739.06
2022-09-13T03:59:07.561Z,97726.06
2022-09-13T04:02:22.340Z,97722.41
2022-09-13T04:05:38.366Z,97713.22
2022-09-13T04:08:54.269Z,97723.53
2022-09-13T04:12:08.273Z,97724.13
2022-09-13T04:15:24.540Z,97714.75
2022-09-13T04:18:49.675Z,97712.56
2022-09-13T04:25:48.617Z,97719.97
2022-09-13T04:29:00.749Z,97721.97
2022-09-13T04:32:18.381Z,97728.19
2022-09-13T04:35:46.152Z,97747.56
2022-09-13T04:38:53.571Z,97756.50
2022-09-13T04:42:03.313Z,97757.84
2022-09-13T04:45:11.534Z,97744.03
2022-09-13T04:48:17.527Z,97743.66
2022-09-13T04:51:26.410Z,97744.66
2022-09-13T04:54:33.281Z,97754.34
2022-09-13T04:57:39.446Z,97757.09
2022-09-13T05:00:49.145Z,97759.50
2022-09-13T05:03:57.606Z,97773.16
2022-09-13T05:07:07.955Z,97769.81
2022-09-13T05:10:19.409Z,97770.81
2022-09-13T05:13:35.255Z,97764.16
2022-09-13T05:16:48.439Z,97772.25
2022-09-13T05:19:57.489Z,97776.53
2022-09-13T05:23:55.878Z,97777.66
2022-09-13T05:27:07.158Z,97774.66
2022-09-13T05:30:23.870Z,97768.16
2022-09-13T05:33:35.650Z,97779.94
2022-09-13T05:36:53.907Z,97792.50
2022-09-13T05:40:11.703Z,97802.38
2022-09-13T05:43:23.629Z,97797.44
2022-09-13T05:50:09.440Z,97791.13
2022-09-13T05:53:14.899Z,97789.69
2022-09-13T05:56:23.202Z,97791.47
2022-09-13T05:59:31.772Z,97782.59
2022-09-13T06:02:38.303Z,97777.72
2022-09-13T06:05:45.747Z,97782.03
2022-09-13T06:08:56.392Z,97798.59
2022-09-13T06:12:18.050Z,97796.59
2022-09-13T06:15:29.974Z,97801.41
2022-09-13T06:19:02.553Z,97809.84
2022-09-13T06:22:23.314Z,97801.28
2022-09-13T06:25:48.187Z,97805.38
2022-09-13T06:29:26.333Z,97794.91
2022-09-13T06:40:39.410Z,97784.41
2022-09-13T06:44:36.016Z,97787.91
2022-09-13T06:48:13.476Z,97802.09
2022-09-13T06:55:13.684Z,97789.25
2022-09-13T06:58:45.061Z,97771.00
2022-09-13T07:14:38.314Z,97764.34
2022-09-13T07:21:48.092Z,97764.94
2022-09-13T07:24:59.171Z,97749.16
2022-09-13T07:28:10.675Z,97748.69
2022-09-13T07:31:25.905Z,97755.91
2022-09-13T07:34:50.535Z,97763.38
2022-09-13T07:38:02.429Z,97754.38
2022-09-13T07:41:20.576Z,97761.41
2022-09-13T07:44:27.956Z,97756.31
2022-09-13T07:47:39.163Z,97771.06
2022-09-13T07:51:08.570Z,97769.59
2022-09-13T07:54:22.791Z,97771.91
2022-09-13T07:57:30.930Z,97765.09
2022-09-13T08:00:37.585Z,97756.72
2022-09-13T08:03:43.742Z,97759.41
2022-09-13T08:07:11.232Z,97754.84
2022-09-13T08:10:25.285Z,97742.69
2022-09-13T08:13:38.679Z,97744.91
2022-09-13T08:16:51.147Z,97737.88
2022-09-13T08:20:06.411Z,97741.94
2022-09-13T08:23:17.695Z,97733.50
2022-09-13T08:26:30.107Z,97743.97
2022-09-13T08:29:41.129Z,97748.94
2022-09-13T08:32:47.556Z,97747.56
2022-09-13T08:36:00.271Z,97742.47
2022-09-13T08:39:14.225Z,97734.13
2022-09-13T08:42:34.414Z,97734.47
2022-09-13T08:45:42.599Z,97734.78
2022-09-13T08:48:53.331Z,97746.00
2022-09-13T08:52:04.379Z,97735.50
2022-09-13T08:55:24.550Z,97742.63
2022-09-13T08:58:47.025Z,97734.72
2022-09-13T09:02:06.725Z,97738.97
2022-09-13T09:05:34.573Z,97733.50
2022-09-13T09:08:47.598Z,97724.63
2022-09-13T09:12:19.684Z,97718.25
2022-09-13T09:15:45.961Z,97721.53
2022-09-13T09:19:00.992Z,97722.75
2022-09-13T09:22:20.719Z,97732.94
2022-09-13T09:25:34.705Z,97744.09
2022-09-13T09:28:46.615Z,97740.34
2022-09-13T09:32:18.893Z,97731.38
2022-09-13T09:35:47.268Z,97726.19
2022-09-13T09:38:58.555Z,97721.59
2022-09-13T09:42:15.679Z,97731.91
2022-09-13T09:45:30.654Z,97731.13
2022-09-13T09:48:47.978Z,97718.94
2022-09-13T09:51:57.516Z,97730.06
2022-09-13T09:55:15.965Z,97738.47
2022-09-13T09:58:44.152Z,97738.53
2022-09-13T10:01:59.726Z,97750.09
2022-09-13T10:05:15.836Z,97741.91
2022-09-13T10:08:32.555Z,97744.41
2022-09-13T10:12:08.722Z,97737.13
2022-09-13T10:15:47.648Z,97741.41
2022-09-13T10:19:35.508Z,97742.66
2022-09-13T10:22:43.814Z,97735.25
2022-09-13T10:26:04.709Z,97736.88
2022-09-13T10:29:13.827Z,97723.88
2022-09-13T10:32:20.295Z,97710.91
2022-09-13T10:35:32.118Z,97723.25
2022-09-13T10:38:47.509Z,97721.53
2022-09-13T10:42:03.391Z,97719.97
2022-09-13T10:45:16.347Z,97719.97
2022-09-13T10:48:41.630Z,97716.03
2022-09-13T10:51:50.189Z,97711.31
2022-09-13T10:54:58.871Z,97702.75
2022-09-13T10:58:26.235Z,97697.66
2022-09-13T11:01:48.684Z,97704.00
2022-09-13T11:05:14.807Z,97696.22
2022-09-13T11:08:53.746Z,97693.88
2022-09-13T11:12:14.856Z,97691.13
2022-09-13T11:15:34.666Z,97690.72
2022-09-13T11:19:17.474Z,97699.78
2022-09-13T11:22:49.644Z,97694.28
2022-09-13T11:26:25.409Z,97686.38
2022-09-13T11:33:36.997Z,97686.00
2022-09-13T11:36:59.171Z,97689.56
2022-09-13T11:40:27.956Z,97708.44
2022-09-13T11:43:50.178Z,97711.53
2022-09-13T11:47:10.899Z,97705.25
2022-09-13T11:50:40.652Z,97688.75
2022-09-13T11:54:01.322Z,97689.94
2022-09-13T11:57:13.251Z,97694.66
2022-09-13T12:00:27.779Z,97689.13
2022-09-13T12:03:41.114Z,97685.19
2022-09-13T12:06:52.091Z,97688.34
2022-09-13T12:10:04.507Z,97683.59
2022-09-13T12:13:25.418Z,97678.81
2022-09-13T12:16:47.669Z,97679.19
2022-09-13T12:20:01.078Z,97671.25
2022-09-13T12:23:18.666Z,97668.50
2022-09-13T12:26:31.632Z,97669.72
2022-09-13T12:29:43.106Z,97669.84
2022-09-13T12:32:58.710Z,97662.00
2022-09-13T12:36:23.669Z,97659.66
2022-09-13T12:39:44.844Z,97645.06
2022-09-13T12:43:12.990Z,97636.25
2022-09-13T12:46:46.202Z,97622.78
2022-09-13T12:50:45.933Z,97616.00
2022-09-13T12:54:14.445Z,97608.50
2022-09-13T12:57:35.520Z,97605.03
2022-09-13T13:00:51.390Z,97596.81
2022-09-13T13:04:02.953Z,97596.78
2022-09-13T13:07:28.037Z,97588.78
2022-09-13T13:10:41.201Z,97587.75
2022-09-13T13:13:49.443Z,97577.84
2022-09-13T13:16:57.463Z,97577.59
2022-09-13T13:20:28.234Z,97572.66
2022-09-13T13:23:45.385Z,97571.25
2022-09-13T13:27:03.700Z,97573.31
2022-09-13T13:30:45.837Z,97578.16
2022-09-13T13:33:55.211Z,97571.47
2022-09-13T13:37:06.543Z,97573.03
2022-09-13T13:40:44.654Z,97563.50
2022-09-13T13:43:51.377Z,97562.22
2022-09-13T13:47:19.512Z,97554.56
2022-09-13T13:50:37.581Z,97548.19
2022-09-13T13:53:51.119Z,97549.06
2022-09-13T13:57:00.639Z,97550.03
2022-09-13T14:00:39.940Z,97547.31
2022-09-13T14:04:25.565Z,97553.72
2022-09-13T14:08:04.993Z,97554.56
2022-09-13T14:11:24.004Z,97547.50
2022-09-13T14:14:58.604Z,97541.22
2022-09-13T14:18:28.200Z,97537.22
2022-09-13T14:21:38.006Z,97542.16
2022-09-13T14:24:50.160Z,97545.38
2022-09-13T14:28:04.779Z,97544.69
2022-09-13T14:31:21.620Z,97532.56
2022-09-13T14:34:32.609Z,97531.03
2022-09-13T14:37:46.476Z,97523.13
2022-09-13T14:40:56.503Z,97520.34
2022-09-13T14:44:25.079Z,97516.78
2022-09-13T14:47:39.554Z,97517.59
2022-09-13T14:50:53.297Z,97522.66
2022-09-13T14:54:05.120Z,97519.59
2022-09-13T14:57:20.973Z,97510.16
2022-09-13T15:00:28.414Z,97514.06
2022-09-13T15:03:35.287Z,97506.22
2022-09-13T15:06:45.092Z,97494.06
2022-09-13T15:09:53.402Z,97492.16
2022-09-13T15:13:13.480Z,97482.75
2022-09-13T15:16:32.437Z,97478.81
2022-09-13T15:19:51.202Z,97471.78
2022-09-13T15:22:59.830Z,97465.47
2022-09-13T15:26:10.433Z,97460.78
2022-09-13T15:29:22.157Z,97463.09
2022-09-13T15:32:36.889Z,97452.09
2022-09-13T15:35:46.575Z,97470.91
2022-09-13T15:39:04.218Z,97454.03
2022-09-13T15:42:11.029Z,97452.03
2022-09-13T15:45:20.321Z,97443.44
2022-09-13T15:48:30.984Z,97442.63
2022-09-13T15:51:39.722Z,97448.88
2022-09-13T15:54:45.849Z,97433.56
2022-09-13T15:57:52.754Z,97432.00
2022-09-13T16:01:03.843Z,97431.22
2022-09-13T16:04:11.390Z,97422.97
2022-09-13T16:07:29.798Z,97418.63
2022-09-13T16:18:14.818Z,97404.06
2022-09-13T16:25:33.981Z,97409.91
2022-09-13T16:28:42.381Z,97402.41
2022-09-13T16:31:49.676Z,97413.75
2022-09-13T16:35:00.784Z,97411.38
2022-09-13T16:38:11.629Z,97414.88
2022-09-13T16:41:18.224Z,97406.16
2022-09-13T16:44:26.743Z,97404.16
2022-09-13T16:47:37.000Z,97400.59
2022-09-13T16:50:46.723Z,97403.69
2022-09-13T16:53:56.334Z,97395.00
2022-09-13T16:57:01.867Z,97400.44
2022-09-13T17:00:12.542Z,97393.31
2022-09-13T17:03:18.768Z,97392.50
2022-09-13T17:06:30.611Z,97382.28
2022-09-13T17:09:38.268Z,97385.34
2022-09-13T17:12:52.794Z,97392.31
2022-09-13T17:16:24.195Z,97391.09
2022-09-13T17:23:44.033Z,97391.34
2022-09-13T17:26:58.522Z,97386.19
2022-09-13T17:30:15.800Z,97391.56
2022-09-13T17:33:30.441Z,97391.91
2022-09-13T17:36:44.991Z,97389.84
2022-09-13T17:39:53.606Z,97381.91
2022-09-13T17:43:03.485Z,97378.69
2022-09-13T17:46:15.681Z,97386.81
2022-09-13T17:49:21.992Z,97383.22
2022-09-13T17:52:31.491Z,97389.75
2022-09-13T17:55:41.203Z,97386.94
2022-09-13T17:58:51.771Z,97386.44
2022-09-13T18:02:01.562Z,97383.63
2022-09-13T18:05:19.133Z,97385.81
2022-09-13T18:08:32.171Z,97385.00
2022-09-13T18:11:45.424Z,97389.94
2022-09-13T18:14:59.336Z,97396.88
2022-09-13T18:18:08.371Z,97392.88
2022-09-13T18:21:44.430Z,97392.75
2022-09-13T18:24:57.915Z,97398.03
2022-09-13T18:28:08.478Z,97401.09
2022-09-13T18:31:25.024Z,97405.66
2022-09-13T18:34:43.602Z,97396.56
2022-09-13T18:37:49.975Z,97407.78
2022-09-13T18:41:09.857Z,97410.78
2022-09-13T18:44:23.717Z,97405.53
2022-09-13T18:47:36.115Z,97413.50
2022-09-13T18:50:45.653Z,97408.38
2022-09-13T18:53:57.121Z,97412.19
2022-09-13T18:57:07.276Z,97418.38
2022-09-13T19:00:23.210Z,97426.13
2022-09-13T19:03:37.499Z,97428.06
2022-09-13T19:06:49.328Z,97431.91
2022-09-13T19:09:55.477Z,97431.03
2022-09-13T19:13:11.679Z,97425.88
2022-09-13T19:16:21.452Z,97420.78
2022-09-13T19:19:31.619Z,97435.91
2022-09-13T19:22:43.219Z,97444.91
2022-09-13T19:25:52.759Z,97444.97
2022-09-13T19:29:06.601Z,97447.41
2022-09-13T19:32:19.434Z,97441.53
2022-09-13T19:35:28.353Z,97445.81
2022-09-13T19:38:37.385Z,97440.72
2022-09-13T19:41:47.267Z,97449.34
2022-09-13T19:44:57.818Z,97447.69
2022-09-13T19:51:34.001Z,97452.66
2022-09-13T19:54:43.639Z,97446.69
2022-09-13T19:57:59.378Z,97447.00
2022-09-13T20:01:07.569Z,97458.63
2022-09-13T20:04:19.000Z,97452.38
2022-09-13T20:07:33.566Z,97446.06
2022-09-13T20:10:44.279Z,97435.06
2022-09-13T20:13:53.808Z,97440.53
2022-09-13T20:17:05.909Z,97438.91
2022-09-13T20:20:13.714Z,97428.22
2022-09-13T20:23:24.892Z,97431.63
2022-09-13T20:26:32.526Z,97425.31
2022-09-13T20:29:45.009Z,97427.53
2022-09-13T20:33:15.863Z,97421.56
2022-09-13T20:36:25.900Z,97428.09
2022-09-13T20:39:44.670Z,97419.31
2022-09-13T20:42:57.187Z,97413.03
2022-09-13T20:46:06.801Z,97415.75
2022-09-13T20:49:21.686Z,97413.78
2022-09-13T20:52:34.714Z,97416.16
2022-09-13T20:56:08.602Z,97415.66
2022-09-13T21:02:59.714Z,97408.13
2022-09-13T21:06:47.864Z,97404.09
2022-09-13T21:10:02.894Z,97396.13
2022-09-13T21:13:28.792Z,97396.84
2022-09-13T21:16:41.602Z,97403.84
2022-09-13T21:20:02.308Z,97401.84
2022-09-13T21:23:07.942Z,97401.41
2022-09-13T21:26:16.129Z,97404.50
2022-09-13T21:29:24.243Z,97393.25
2022-09-13T21:32:32.490Z,97384.66
2022-09-13T21:35:41.612Z,97380.75
2022-09-13T21:38:49.016Z,97380.75
2022-09-13T21:41:55.532Z,97384.66
2022-09-13T21:45:04.585Z,97385.44
2022-09-13T21:48:10.937Z,97391.66
2022-09-13T21:51:20.645Z,97398.63
2022-09-13T21:54:33.089Z,97394.66
2022-09-13T21:57:39.898Z,97387.66
2022-09-13T22:00:48.442Z,97385.28
2022-09-13T22:03:57.218Z,97377.09
2022-09-13T22:07:03.418Z,97364.72
2022-09-13T22:10:10.604Z,97360.75
2022-09-13T22:13:17.522Z,97367.81
2022-09-13T22:16:35.568Z,97374.81
2022-09-13T22:19:41.887Z,97379.81
2022-09-13T22:22:54.589Z,97383.25
2022-09-13T22:26:01.812Z,97370.59
2022-09-13T22:29:10.930Z,97359.28
2022-09-13T22:32:23.973Z,97352.59
2022-09-13T22:35:33.219Z,97339.34
2022-09-13T22:38:44.046Z,97331.63
2022-09-13T22:41:52.723Z,97342.59
2022-09-13T22:45:09.239Z,97335.56
2022-09-13T22:48:20.585Z,97330.50
2022-09-13T22:51:29.832Z,97333.91
2022-09-13T22:54:39.155Z,97333.91
2022-09-13T22:57:47.759Z,97347.09
2022-09-13T23:01:08.848Z,97341.19
2022-09-13T23:04:17.712Z,97345.84
2022-09-13T23:07:31.719Z,97337.25
2022-09-13T23:10:43.343Z,97329.81
2022-09-13T23:13:51.753Z,97320.50
2022-09-13T23:16:59.312Z,97318.84
2022-09-13T23:20:11.462Z,97320.34
2022-09-13T23:23:17.549Z,97311.28
2022-09-13T23:26:26.330Z,97306.94
2022-09-13T23:29:32.652Z,97309.91
2022-09-13T23:32:39.163Z,97309.03
2022-09-13T23:35:48.468Z,97303.94
2022-09-13T23:38:57.062Z,97298.88
2022-09-13T23:42:05.112Z,97290.97
2022-09-13T23:45:12.053Z,97292.56
2022-09-13T23:48:18.657Z,97290.97
2022-09-13T23:51:28.576Z,97289.75
2022-09-13T23:54:35.399Z,97285.09
2022-09-13T23:57:42.236Z,97280.00
